sensor_id;sensor_type;location;lat;lon;timestamp;P1;durP1;ratioP1;P2;durP2;ratioP2
36373;SDS011;22399;51.346;12.372;2022-07-29T00:01:17;6.47;;;0.80;;
36373;SDS011;22399;51.346;12.372;2022-07-29T00:06:20;1.25;;;0.73;;
36373;SDS011;22399;51.346;12.372;2022-07-29T00:11:23;1.13;;;0.73;;
36373;SDS011;22399;51.346;12.372;2022-07-29T00:16:28;2.63;;;1.15;;
36373;SDS011;22399;51.346;12.372;2022-07-29T00:21:32;1.27;;;0.68;;
36373;SDS011;22399;51.346;12.372;2022-07-29T00:26:35;4.63;;;0.95;;
36373;SDS011;22399;51.346;12.372;2022-07-29T00:31:40;2.00;;;0.70;;
36373;SDS011;22399;51.346;12.372;2022-07-29T00:36:43;3.60;;;0.80;;
36373;SDS011;22399;51.346;12.372;2022-07-29T00:41:47;4.15;;;0.90;;
36373;SDS011;22399;51.346;12.372;2022-07-29T00:46:52;1.92;;;0.70;;
36373;SDS011;22399;51.346;12.372;2022-07-29T00:51:55;0.88;;;0.57;;
36373;SDS011;22399;51.346;12.372;2022-07-29T00:56:59;6.53;;;0.98;;
36373;SDS011;22399;51.346;12.372;2022-07-29T01:02:08;1.45;;;0.73;;
36373;SDS011;22399;51.346;12.372;2022-07-29T01:07:11;1.35;;;0.70;;
36373;SDS011;22399;51.346;12.372;2022-07-29T01:12:16;4.53;;;1.00;;
36373;SDS011;22399;51.346;12.372;2022-07-29T01:17:23;2.05;;;0.70;;
36373;SDS011;22399;51.346;12.372;2022-07-29T01:22:33;5.10;;;0.65;;
36373;SDS011;22399;51.346;12.372;2022-07-29T01:27:51;2.63;;;0.82;;
36373;SDS011;22399;51.346;12.372;2022-07-29T01:33:07;9.90;;;1.02;;
36373;SDS011;22399;51.346;12.372;2022-07-29T01:38:38;1.88;;;0.88;;
36373;SDS011;22399;51.346;12.372;2022-07-29T01:43:44;1.98;;;0.68;;
36373;SDS011;22399;51.346;12.372;2022-07-29T01:48:55;5.00;;;1.00;;
36373;SDS011;22399;51.346;12.372;2022-07-29T01:54:04;2.67;;;0.95;;
36373;SDS011;22399;51.346;12.372;2022-07-29T01:59:13;7.07;;;1.27;;
36373;SDS011;22399;51.346;12.372;2022-07-29T02:04:20;3.00;;;1.15;;
36373;SDS011;22399;51.346;12.372;2022-07-29T02:09:30;2.15;;;0.70;;
36373;SDS011;22399;51.346;12.372;2022-07-29T02:14:37;2.97;;;0.80;;
36373;SDS011;22399;51.346;12.372;2022-07-29T02:19:46;7.22;;;0.80;;
36373;SDS011;22399;51.346;12.372;2022-07-29T02:24:51;1.58;;;0.82;;
36373;SDS011;22399;51.346;12.372;2022-07-29T02:29:55;4.30;;;1.00;;
36373;SDS011;22399;51.346;12.372;2022-07-29T02:35:04;7.07;;;1.23;;
36373;SDS011;22399;51.346;12.372;2022-07-29T02:40:11;1.75;;;0.60;;
36373;SDS011;22399;51.346;12.372;2022-07-29T02:45:15;2.67;;;1.00;;
36373;SDS011;22399;51.346;12.372;2022-07-29T02:50:21;8.88;;;1.08;;
36373;SDS011;22399;51.346;12.372;2022-07-29T02:55:33;0.50;;;0.50;;
36373;SDS011;22399;51.346;12.372;2022-07-29T03:00:39;1.67;;;0.60;;
36373;SDS011;22399;51.346;12.372;2022-07-29T03:05:44;5.38;;;1.20;;
36373;SDS011;22399;51.346;12.372;2022-07-29T03:10:48;3.17;;;0.68;;
36373;SDS011;22399;51.346;12.372;2022-07-29T03:15:52;1.73;;;0.82;;
36373;SDS011;22399;51.346;12.372;2022-07-29T03:21:00;5.90;;;1.15;;
36373;SDS011;22399;51.346;12.372;2022-07-29T03:26:04;2.08;;;0.88;;
36373;SDS011;22399;51.346;12.372;2022-07-29T03:31:07;1.15;;;0.80;;
36373;SDS011;22399;51.346;12.372;2022-07-29T03:36:12;2.13;;;0.77;;
36373;SDS011;22399;51.346;12.372;2022-07-29T03:41:15;3.45;;;1.00;;
36373;SDS011;22399;51.346;12.372;2022-07-29T03:46:22;2.25;;;0.73;;
36373;SDS011;22399;51.346;12.372;2022-07-29T03:51:30;5.78;;;0.90;;
36373;SDS011;22399;51.346;12.372;2022-07-29T03:56:36;3.78;;;0.70;;
36373;SDS011;22399;51.346;12.372;2022-07-29T04:01:42;6.15;;;0.95;;
36373;SDS011;22399;51.346;12.372;2022-07-29T04:06:47;4.97;;;0.88;;
36373;SDS011;22399;51.346;12.372;2022-07-29T04:11:50;4.03;;;1.02;;
36373;SDS011;22399;51.346;12.372;2022-07-29T04:22:07;2.85;;;1.05;;
36373;SDS011;22399;51.346;12.372;2022-07-29T04:27:10;1.58;;;0.70;;
36373;SDS011;22399;51.346;12.372;2022-07-29T04:32:14;5.78;;;0.93;;
36373;SDS011;22399;51.346;12.372;2022-07-29T04:37:19;7.53;;;1.02;;
36373;SDS011;22399;51.346;12.372;2022-07-29T04:42:22;7.95;;;1.52;;
36373;SDS011;22399;51.346;12.372;2022-07-29T04:47:28;2.55;;;0.90;;
36373;SDS011;22399;51.346;12.372;2022-07-29T04:52:32;4.55;;;1.35;;
36373;SDS011;22399;51.346;12.372;2022-07-29T04:57:35;3.17;;;1.00;;
36373;SDS011;22399;51.346;12.372;2022-07-29T05:02:39;9.80;;;1.65;;
36373;SDS011;22399;51.346;12.372;2022-07-29T05:07:44;2.08;;;1.05;;
36373;SDS011;22399;51.346;12.372;2022-07-29T05:12:47;8.05;;;1.48;;
36373;SDS011;22399;51.346;12.372;2022-07-29T05:17:50;7.63;;;1.17;;
36373;SDS011;22399;51.346;12.372;2022-07-29T05:22:55;1.88;;;0.98;;
36373;SDS011;22399;51.346;12.372;2022-07-29T05:27:59;4.00;;;1.10;;
36373;SDS011;22399;51.346;12.372;2022-07-29T05:33:02;6.57;;;1.60;;
36373;SDS011;22399;51.346;12.372;2022-07-29T05:38:07;4.85;;;1.10;;
36373;SDS011;22399;51.346;12.372;2022-07-29T05:43:10;2.58;;;1.05;;
36373;SDS011;22399;51.346;12.372;2022-07-29T05:48:13;9.38;;;1.17;;
36373;SDS011;22399;51.346;12.372;2022-07-29T05:53:18;3.65;;;1.15;;
36373;SDS011;22399;51.346;12.372;2022-07-29T05:58:21;2.10;;;1.20;;
36373;SDS011;22399;51.346;12.372;2022-07-29T06:03:26;7.60;;;1.27;;
36373;SDS011;22399;51.346;12.372;2022-07-29T06:08:31;4.28;;;1.20;;
36373;SDS011;22399;51.346;12.372;2022-07-29T06:13:35;6.82;;;1.83;;
36373;SDS011;22399;51.346;12.372;2022-07-29T06:18:38;4.50;;;1.40;;
36373;SDS011;22399;51.346;12.372;2022-07-29T06:23:43;3.78;;;1.60;;
36373;SDS011;22399;51.346;12.372;2022-07-29T06:28:47;8.57;;;1.45;;
36373;SDS011;22399;51.346;12.372;2022-07-29T06:33:51;6.03;;;1.40;;
36373;SDS011;22399;51.346;12.372;2022-07-29T06:38:56;8.30;;;1.65;;
36373;SDS011;22399;51.346;12.372;2022-07-29T06:43:59;5.68;;;1.33;;
36373;SDS011;22399;51.346;12.372;2022-07-29T06:49:02;11.38;;;1.35;;
36373;SDS011;22399;51.346;12.372;2022-07-29T06:54:07;3.35;;;1.58;;
36373;SDS011;22399;51.346;12.372;2022-07-29T06:59:11;11.77;;;1.77;;
36373;SDS011;22399;51.346;12.372;2022-07-29T07:04:15;6.00;;;1.45;;
36373;SDS011;22399;51.346;12.372;2022-07-29T07:09:20;2.40;;;1.33;;
36373;SDS011;22399;51.346;12.372;2022-07-29T07:14:24;6.15;;;1.10;;
36373;SDS011;22399;51.346;12.372;2022-07-29T07:19:28;4.72;;;1.25;;
36373;SDS011;22399;51.346;12.372;2022-07-29T07:24:32;6.65;;;1.30;;
36373;SDS011;22399;51.346;12.372;2022-07-29T07:29:35;6.57;;;1.40;;
36373;SDS011;22399;51.346;12.372;2022-07-29T07:34:44;8.05;;;1.67;;
36373;SDS011;22399;51.346;12.372;2022-07-29T07:39:49;6.82;;;1.30;;
36373;SDS011;22399;51.346;12.372;2022-07-29T07:44:52;3.05;;;1.13;;
36373;SDS011;22399;51.346;12.372;2022-07-29T07:50:13;6.50;;;1.48;;
36373;SDS011;22399;51.346;12.372;2022-07-29T07:55:21;7.57;;;2.08;;
36373;SDS011;22399;51.346;12.372;2022-07-29T08:00:24;10.35;;;2.00;;
36373;SDS011;22399;51.346;12.372;2022-07-29T08:05:28;8.02;;;1.75;;
36373;SDS011;22399;51.346;12.372;2022-07-29T08:10:33;5.47;;;1.60;;
36373;SDS011;22399;51.346;12.372;2022-07-29T08:15:55;22.92;;;1.77;;
36373;SDS011;22399;51.346;12.372;2022-07-29T08:21:02;6.15;;;1.67;;
36373;SDS011;22399;51.346;12.372;2022-07-29T08:26:07;3.47;;;1.55;;
36373;SDS011;22399;51.346;12.372;2022-07-29T08:31:12;4.20;;;1.85;;
36373;SDS011;22399;51.346;12.372;2022-07-29T08:36:16;7.57;;;1.73;;
36373;SDS011;22399;51.346;12.372;2022-07-29T08:41:20;3.65;;;1.70;;
36373;SDS011;22399;51.346;12.372;2022-07-29T08:46:24;1.50;;;0.93;;
36373;SDS011;22399;51.346;12.372;2022-07-29T08:51:27;3.28;;;1.42;;
36373;SDS011;22399;51.346;12.372;2022-07-29T08:56:33;8.57;;;1.05;;
36373;SDS011;22399;51.346;12.372;2022-07-29T09:01:37;3.10;;;1.50;;
36373;SDS011;22399;51.346;12.372;2022-07-29T09:06:46;8.27;;;1.70;;
36373;SDS011;22399;51.346;12.372;2022-07-29T09:11:53;6.00;;;1.88;;
36373;SDS011;22399;51.346;12.372;2022-07-29T09:16:56;6.22;;;1.70;;
36373;SDS011;22399;51.346;12.372;2022-07-29T09:22:02;5.60;;;1.80;;
36373;SDS011;22399;51.346;12.372;2022-07-29T09:27:12;9.90;;;2.15;;
36373;SDS011;22399;51.346;12.372;2022-07-29T09:32:22;6.47;;;2.25;;
36373;SDS011;22399;51.346;12.372;2022-07-29T09:37:26;5.63;;;2.05;;
36373;SDS011;22399;51.346;12.372;2022-07-29T09:42:32;12.07;;;1.70;;
36373;SDS011;22399;51.346;12.372;2022-07-29T09:47:41;5.38;;;2.28;;
36373;SDS011;22399;51.346;12.372;2022-07-29T09:52:51;6.13;;;1.80;;
36373;SDS011;22399;51.346;12.372;2022-07-29T09:57:58;5.25;;;1.75;;
36373;SDS011;22399;51.346;12.372;2022-07-29T10:03:18;5.10;;;1.83;;
36373;SDS011;22399;51.346;12.372;2022-07-29T10:08:24;4.75;;;1.85;;
36373;SDS011;22399;51.346;12.372;2022-07-29T10:13:29;6.75;;;1.60;;
36373;SDS011;22399;51.346;12.372;2022-07-29T10:18:32;3.85;;;1.42;;
36373;SDS011;22399;51.346;12.372;2022-07-29T10:23:37;10.13;;;1.30;;
36373;SDS011;22399;51.346;12.372;2022-07-29T10:28:48;2.53;;;0.90;;
36373;SDS011;22399;51.346;12.372;2022-07-29T10:33:55;1.92;;;1.05;;
36373;SDS011;22399;51.346;12.372;2022-07-29T10:39:08;6.03;;;1.80;;
36373;SDS011;22399;51.346;12.372;2022-07-29T10:44:24;4.75;;;1.30;;
36373;SDS011;22399;51.346;12.372;2022-07-29T10:49:29;1.92;;;0.93;;
36373;SDS011;22399;51.346;12.372;2022-07-29T10:54:36;2.05;;;1.10;;
36373;SDS011;22399;51.346;12.372;2022-07-29T10:59:49;3.35;;;1.48;;
36373;SDS011;22399;51.346;12.372;2022-07-29T11:04:59;2.72;;;1.30;;
36373;SDS011;22399;51.346;12.372;2022-07-29T11:10:21;3.97;;;1.13;;
36373;SDS011;22399;51.346;12.372;2022-07-29T11:15:51;2.00;;;1.10;;
36373;SDS011;22399;51.346;12.372;2022-07-29T11:20:55;1.95;;;1.10;;
36373;SDS011;22399;51.346;12.372;2022-07-29T11:26:13;2.03;;;0.90;;
36373;SDS011;22399;51.346;12.372;2022-07-29T11:31:34;6.40;;;1.45;;
36373;SDS011;22399;51.346;12.372;2022-07-29T11:42:40;2.50;;;1.10;;
36373;SDS011;22399;51.346;12.372;2022-07-29T11:47:55;4.47;;;1.58;;
36373;SDS011;22399;51.346;12.372;2022-07-29T11:53:22;4.85;;;1.73;;
36373;SDS011;22399;51.346;12.372;2022-07-29T11:58:25;4.07;;;1.75;;
36373;SDS011;22399;51.346;12.372;2022-07-29T12:03:32;6.88;;;1.60;;
36373;SDS011;22399;51.346;12.372;2022-07-29T12:08:39;7.88;;;1.42;;
36373;SDS011;22399;51.346;12.372;2022-07-29T12:13:44;3.38;;;1.35;;
36373;SDS011;22399;51.346;12.372;2022-07-29T12:18:57;5.00;;;1.45;;
36373;SDS011;22399;51.346;12.372;2022-07-29T12:24:03;2.75;;;1.17;;
36373;SDS011;22399;51.346;12.372;2022-07-29T12:29:14;4.30;;;1.75;;
36373;SDS011;22399;51.346;12.372;2022-07-29T12:34:35;3.75;;;1.40;;
36373;SDS011;22399;51.346;12.372;2022-07-29T12:39:39;4.32;;;1.55;;
36373;SDS011;22399;51.346;12.372;2022-07-29T12:44:43;4.78;;;1.70;;
36373;SDS011;22399;51.346;12.372;2022-07-29T12:49:49;6.80;;;1.42;;
36373;SDS011;22399;51.346;12.372;2022-07-29T12:54:53;2.72;;;1.30;;
36373;SDS011;22399;51.346;12.372;2022-07-29T13:00:01;9.20;;;1.48;;
36373;SDS011;22399;51.346;12.372;2022-07-29T13:05:10;4.40;;;1.73;;
36373;SDS011;22399;51.346;12.372;2022-07-29T13:10:14;5.40;;;1.42;;
36373;SDS011;22399;51.346;12.372;2022-07-29T13:15:24;2.65;;;1.30;;
36373;SDS011;22399;51.346;12.372;2022-07-29T13:20:29;2.42;;;1.25;;
36373;SDS011;22399;51.346;12.372;2022-07-29T13:25:33;3.28;;;1.55;;
36373;SDS011;22399;51.346;12.372;2022-07-29T13:30:42;3.25;;;1.50;;
36373;SDS011;22399;51.346;12.372;2022-07-29T13:35:47;4.82;;;1.63;;
36373;SDS011;22399;51.346;12.372;2022-07-29T13:40:50;4.00;;;1.88;;
36373;SDS011;22399;51.346;12.372;2022-07-29T13:45:53;2.55;;;1.30;;
36373;SDS011;22399;51.346;12.372;2022-07-29T13:50:59;2.50;;;1.50;;
36373;SDS011;22399;51.346;12.372;2022-07-29T13:56:02;5.57;;;1.98;;
36373;SDS011;22399;51.346;12.372;2022-07-29T14:01:07;2.60;;;1.55;;
36373;SDS011;22399;51.346;12.372;2022-07-29T14:06:12;9.45;;;1.80;;
36373;SDS011;22399;51.346;12.372;2022-07-29T14:11:18;5.85;;;2.38;;
36373;SDS011;22399;51.346;12.372;2022-07-29T14:16:22;6.20;;;2.28;;
36373;SDS011;22399;51.346;12.372;2022-07-29T14:21:26;6.72;;;1.65;;
36373;SDS011;22399;51.346;12.372;2022-07-29T14:26:32;6.82;;;1.52;;
36373;SDS011;22399;51.346;12.372;2022-07-29T14:31:35;7.80;;;2.05;;
36373;SDS011;22399;51.346;12.372;2022-07-29T14:36:40;8.65;;;1.85;;
36373;SDS011;22399;51.346;12.372;2022-07-29T14:41:44;3.70;;;1.40;;
36373;SDS011;22399;51.346;12.372;2022-07-29T14:46:47;3.95;;;2.05;;
36373;SDS011;22399;51.346;12.372;2022-07-29T14:51:52;4.68;;;1.58;;
36373;SDS011;22399;51.346;12.372;2022-07-29T14:56:55;9.10;;;2.40;;
36373;SDS011;22399;51.346;12.372;2022-07-29T15:01:59;7.50;;;1.95;;
36373;SDS011;22399;51.346;12.372;2022-07-29T15:07:04;3.17;;;1.92;;
36373;SDS011;22399;51.346;12.372;2022-07-29T15:12:08;3.65;;;1.65;;
36373;SDS011;22399;51.346;12.372;2022-07-29T15:17:12;5.20;;;2.00;;
36373;SDS011;22399;51.346;12.372;2022-07-29T15:22:17;3.60;;;2.00;;
36373;SDS011;22399;51.346;12.372;2022-07-29T15:27:20;3.38;;;1.88;;
36373;SDS011;22399;51.346;12.372;2022-07-29T15:32:24;3.78;;;1.95;;
36373;SDS011;22399;51.346;12.372;2022-07-29T15:37:28;9.93;;;1.70;;
36373;SDS011;22399;51.346;12.372;2022-07-29T15:42:49;7.00;;;2.38;;
36373;SDS011;22399;51.346;12.372;2022-07-29T15:47:53;6.32;;;1.90;;
36373;SDS011;22399;51.346;12.372;2022-07-29T15:52:57;3.10;;;1.42;;
36373;SDS011;22399;51.346;12.372;2022-07-29T15:58:01;3.78;;;1.20;;
36373;SDS011;22399;51.346;12.372;2022-07-29T16:03:04;3.42;;;1.27;;
36373;SDS011;22399;51.346;12.372;2022-07-29T16:08:08;3.97;;;1.60;;
36373;SDS011;22399;51.346;12.372;2022-07-29T16:13:12;3.42;;;1.58;;
36373;SDS011;22399;51.346;12.372;2022-07-29T16:18:19;4.72;;;1.25;;
36373;SDS011;22399;51.346;12.372;2022-07-29T16:23:31;9.10;;;1.50;;
36373;SDS011;22399;51.346;12.372;2022-07-29T16:28:34;5.03;;;1.92;;
36373;SDS011;22399;51.346;12.372;2022-07-29T16:33:38;6.30;;;2.50;;
36373;SDS011;22399;51.346;12.372;2022-07-29T16:38:57;3.85;;;1.65;;
36373;SDS011;22399;51.346;12.372;2022-07-29T16:44:00;3.88;;;1.77;;
36373;SDS011;22399;51.346;12.372;2022-07-29T16:49:03;3.33;;;1.85;;
36373;SDS011;22399;51.346;12.372;2022-07-29T16:54:08;4.82;;;2.13;;
36373;SDS011;22399;51.346;12.372;2022-07-29T16:59:12;6.32;;;1.42;;
36373;SDS011;22399;51.346;12.372;2022-07-29T17:04:15;3.70;;;1.80;;
36373;SDS011;22399;51.346;12.372;2022-07-29T17:09:19;2.35;;;1.58;;
36373;SDS011;22399;51.346;12.372;2022-07-29T17:14:24;3.50;;;1.73;;
36373;SDS011;22399;51.346;12.372;2022-07-29T17:19:29;2.28;;;1.42;;
36373;SDS011;22399;51.346;12.372;2022-07-29T17:24:35;2.53;;;1.40;;
36373;SDS011;22399;51.346;12.372;2022-07-29T17:29:41;2.65;;;1.38;;
36373;SDS011;22399;51.346;12.372;2022-07-29T17:34:45;2.53;;;1.38;;
36373;SDS011;22399;51.346;12.372;2022-07-29T17:39:50;1.88;;;1.40;;
36373;SDS011;22399;51.346;12.372;2022-07-29T17:44:58;2.88;;;1.73;;
36373;SDS011;22399;51.346;12.372;2022-07-29T17:50:02;1.67;;;1.17;;
36373;SDS011;22399;51.346;12.372;2022-07-29T17:55:08;6.47;;;2.17;;
36373;SDS011;22399;51.346;12.372;2022-07-29T18:00:13;7.35;;;1.98;;
36373;SDS011;22399;51.346;12.372;2022-07-29T18:05:17;4.72;;;1.77;;
36373;SDS011;22399;51.346;12.372;2022-07-29T18:10:22;9.43;;;2.97;;
36373;SDS011;22399;51.346;12.372;2022-07-29T18:15:25;2.40;;;1.20;;
36373;SDS011;22399;51.346;12.372;2022-07-29T18:20:29;4.22;;;1.50;;
36373;SDS011;22399;51.346;12.372;2022-07-29T18:25:34;3.97;;;2.08;;
36373;SDS011;22399;51.346;12.372;2022-07-29T18:30:37;4.53;;;1.95;;
36373;SDS011;22399;51.346;12.372;2022-07-29T18:35:40;4.38;;;1.73;;
36373;SDS011;22399;51.346;12.372;2022-07-29T18:40:53;3.83;;;2.10;;
36373;SDS011;22399;51.346;12.372;2022-07-29T18:46:11;5.32;;;1.70;;
36373;SDS011;22399;51.346;12.372;2022-07-29T18:51:15;2.88;;;2.05;;
36373;SDS011;22399;51.346;12.372;2022-07-29T18:56:19;7.50;;;2.25;;
36373;SDS011;22399;51.346;12.372;2022-07-29T19:01:23;2.28;;;1.38;;
36373;SDS011;22399;51.346;12.372;2022-07-29T19:06:32;4.25;;;1.85;;
36373;SDS011;22399;51.346;12.372;2022-07-29T19:11:37;2.53;;;1.55;;
36373;SDS011;22399;51.346;12.372;2022-07-29T19:16:40;3.90;;;2.47;;
36373;SDS011;22399;51.346;12.372;2022-07-29T19:21:44;7.90;;;2.30;;
36373;SDS011;22399;51.346;12.372;2022-07-29T19:26:50;8.20;;;2.35;;
36373;SDS011;22399;51.346;12.372;2022-07-29T19:31:53;5.65;;;2.20;;
36373;SDS011;22399;51.346;12.372;2022-07-29T19:36:56;7.78;;;2.90;;
36373;SDS011;22399;51.346;12.372;2022-07-29T19:42:01;8.02;;;2.88;;
36373;SDS011;22399;51.346;12.372;2022-07-29T19:47:05;4.72;;;2.03;;
36373;SDS011;22399;51.346;12.372;2022-07-29T19:52:09;8.18;;;2.60;;
36373;SDS011;22399;51.346;12.372;2022-07-29T19:57:14;11.82;;;2.60;;
36373;SDS011;22399;51.346;12.372;2022-07-29T20:02:17;4.90;;;2.13;;
36373;SDS011;22399;51.346;12.372;2022-07-29T20:07:21;2.72;;;1.92;;
36373;SDS011;22399;51.346;12.372;2022-07-29T20:12:25;7.53;;;2.58;;
36373;SDS011;22399;51.346;12.372;2022-07-29T20:17:28;3.63;;;2.13;;
36373;SDS011;22399;51.346;12.372;2022-07-29T20:22:40;9.10;;;2.63;;
36373;SDS011;22399;51.346;12.372;2022-07-29T20:27:46;3.58;;;2.10;;
36373;SDS011;22399;51.346;12.372;2022-07-29T20:32:52;3.22;;;2.10;;
36373;SDS011;22399;51.346;12.372;2022-07-29T20:37:55;6.72;;;3.08;;
36373;SDS011;22399;51.346;12.372;2022-07-29T20:43:01;5.60;;;2.65;;
36373;SDS011;22399;51.346;12.372;2022-07-29T20:48:06;6.20;;;1.88;;
36373;SDS011;22399;51.346;12.372;2022-07-29T20:53:10;6.55;;;2.35;;
36373;SDS011;22399;51.346;12.372;2022-07-29T20:58:15;2.92;;;1.98;;
36373;SDS011;22399;51.346;12.372;2022-07-29T21:03:20;3.70;;;2.20;;
36373;SDS011;22399;51.346;12.372;2022-07-29T21:08:23;3.38;;;1.95;;
36373;SDS011;22399;51.346;12.372;2022-07-29T21:13:28;4.00;;;2.38;;
36373;SDS011;22399;51.346;12.372;2022-07-29T21:18:33;8.60;;;2.22;;
36373;SDS011;22399;51.346;12.372;2022-07-29T21:23:38;11.00;;;3.10;;
36373;SDS011;22399;51.346;12.372;2022-07-29T21:28:42;6.57;;;2.85;;
36373;SDS011;22399;51.346;12.372;2022-07-29T21:33:50;5.47;;;2.70;;
36373;SDS011;22399;51.346;12.372;2022-07-29T21:38:54;4.22;;;2.53;;
36373;SDS011;22399;51.346;12.372;2022-07-29T21:43:58;3.80;;;2.60;;
36373;SDS011;22399;51.346;12.372;2022-07-29T21:49:02;9.70;;;3.08;;
36373;SDS011;22399;51.346;12.372;2022-07-29T21:54:05;7.88;;;2.83;;
36373;SDS011;22399;51.346;12.372;2022-07-29T21:59:10;5.05;;;2.85;;
36373;SDS011;22399;51.346;12.372;2022-07-29T22:04:13;5.57;;;2.78;;
36373;SDS011;22399;51.346;12.372;2022-07-29T22:09:17;5.78;;;2.47;;
36373;SDS011;22399;51.346;12.372;2022-07-29T22:14:21;4.75;;;2.65;;
36373;SDS011;22399;51.346;12.372;2022-07-29T22:19:25;6.38;;;2.53;;
36373;SDS011;22399;51.346;12.372;2022-07-29T22:24:32;5.00;;;2.63;;
36373;SDS011;22399;51.346;12.372;2022-07-29T22:29:36;6.05;;;2.50;;
36373;SDS011;22399;51.346;12.372;2022-07-29T22:34:40;3.88;;;2.30;;
36373;SDS011;22399;51.346;12.372;2022-07-29T22:39:43;9.55;;;2.47;;
36373;SDS011;22399;51.346;12.372;2022-07-29T22:44:47;5.30;;;2.22;;
36373;SDS011;22399;51.346;12.372;2022-07-29T22:49:50;6.43;;;2.70;;
36373;SDS011;22399;51.346;12.372;2022-07-29T22:54:54;5.25;;;1.88;;
36373;SDS011;22399;51.346;12.372;2022-07-29T22:59:58;3.85;;;2.05;;
36373;SDS011;22399;51.346;12.372;2022-07-29T23:05:02;4.75;;;2.92;;
36373;SDS011;22399;51.346;12.372;2022-07-29T23:10:07;4.65;;;2.50;;
36373;SDS011;22399;51.346;12.372;2022-07-29T23:15:12;5.18;;;2.72;;
36373;SDS011;22399;51.346;12.372;2022-07-29T23:20:15;3.85;;;2.47;;
36373;SDS011;22399;51.346;12.372;2022-07-29T23:25:19;6.60;;;2.47;;
36373;SDS011;22399;51.346;12.372;2022-07-29T23:30:24;8.00;;;2.67;;
36373;SDS011;22399;51.346;12.372;2022-07-29T23:35:27;5.15;;;2.60;;
36373;SDS011;22399;51.346;12.372;2022-07-29T23:40:31;3.65;;;2.10;;
36373;SDS011;22399;51.346;12.372;2022-07-29T23:45:36;5.57;;;2.42;;
36373;SDS011;22399;51.346;12.372;2022-07-29T23:50:48;5.28;;;2.55;;
36373;SDS011;22399;51.346;12.372;2022-07-29T23:55:52;6.18;;;2.50;;
